Time;durP1;ratioP1;P1;durP2;ratioP2;P2;SDS_P1;SDS_P2;PMS_P1;PMS_P2;Temp;Humidity;BMP_temperature;BMP_pressure;BME280_temperature;BME280_humidity;BME280_pressure;Samples;Min_cycle;Max_cycle;Signal;HPM_P1;HPM_P2
2023/03/11 00:01:39;;;;;;;0.00;0.00;;;3.40;99.90;;;;;;5057875;28;20188;-67
2023/03/11 00:04:06;;;;;;;0.00;0.00;;;3.40;99.90;;;;;;5050893;28;20235;-67
2023/03/11 00:06:34;;;;;;;0.00;0.00;;;3.40;99.90;;;;;;5064206;28;20684;-67
2023/03/11 00:08:59;;;;;;;0.00;0.00;;;3.40;99.90;;;;;;5059860;28;20195;-67
2023/03/11 00:11:25;;;;;;;0.00;0.00;;;3.40;99.90;;;;;;5059372;28;20177;-67
2023/03/11 00:13:50;;;;;;;0.00;0.00;;;3.30;99.90;;;;;;5055924;28;20216;-67
2023/03/11 00:16:16;;;;;;;0.00;0.00;;;3.30;99.90;;;;;;5066903;28;20721;-66
2023/03/11 00:18:42;;;;;;;0.00;0.00;;;3.30;99.90;;;;;;5053114;28;20188;-67
2023/03/11 00:21:15;;;;;;;0.00;0.00;;;3.20;99.90;;;;;;5050500;28;20637;-67
2023/03/11 00:23:41;;;;;;;0.00;0.00;;;3.20;99.90;;;;;;5065617;28;20183;-67
2023/03/11 00:26:06;;;;;;;0.00;0.00;;;3.20;99.90;;;;;;5053457;28;20169;-67
2023/03/11 00:28:32;;;;;;;0.00;0.00;;;3.10;99.90;;;;;;5051429;28;20554;-66
2023/03/11 00:30:57;;;;;;;0.00;0.00;;;3.10;99.90;;;;;;5061471;28;20185;-66
2023/03/11 00:33:23;;;;;;;0.00;0.00;;;3.10;99.90;;;;;;5064864;28;20699;-66
2023/03/11 00:35:49;;;;;;;0.00;0.00;;;3.10;99.90;;;;;;5056100;28;20699;-66
2023/03/11 00:38:16;;;;;;;0.00;0.00;;;3.00;99.90;;;;;;5052956;28;20639;-67
2023/03/11 00:40:43;;;;;;;0.00;0.00;;;2.90;99.90;;;;;;5054929;28;20208;-66
2023/03/11 00:43:09;;;;;;;0.00;0.00;;;2.90;99.90;;;;;;5063340;28;20263;-66
2023/03/11 00:45:34;;;;;;;0.00;0.00;;;2.80;99.90;;;;;;5058462;28;20268;-66
2023/03/11 00:48:00;;;;;;;0.00;0.00;;;2.80;99.90;;;;;;5063661;28;20220;-66
2023/03/11 00:50:31;;;;;;;0.00;0.00;;;2.80;99.90;;;;;;5067213;28;20193;-66
2023/03/11 00:52:57;;;;;;;0.00;0.00;;;2.80;99.90;;;;;;5055181;28;20672;-66
2023/03/11 00:55:26;;;;;;;0.10;0.10;;;2.70;99.90;;;;;;5058842;28;20224;-66
2023/03/11 00:57:57;;;;;;;0.00;0.00;;;2.70;99.90;;;;;;5055857;28;20169;-66
2023/03/11 01:00:24;;;;;;;0.00;0.00;;;2.70;99.90;;;;;;5068048;28;20189;-66
2023/03/11 01:02:51;;;;;;;0.00;0.00;;;2.70;99.90;;;;;;5059971;28;20247;-66
2023/03/11 01:05:19;;;;;;;0.00;0.00;;;2.60;99.90;;;;;;5063135;28;20530;-66
2023/03/11 01:07:45;;;;;;;0.00;0.00;;;2.60;99.90;;;;;;5060751;28;20543;-66
2023/03/11 01:10:10;;;;;;;0.00;0.00;;;2.50;99.90;;;;;;5055761;28;20178;-66
2023/03/11 01:12:36;;;;;;;0.00;0.00;;;2.50;99.90;;;;;;5064339;28;20843;-66
2023/03/11 01:15:02;;;;;;;0.00;0.00;;;2.50;99.90;;;;;;5059719;28;20236;-66
2023/03/11 01:17:28;;;;;;;0.00;0.00;;;2.50;99.90;;;;;;5062360;28;20587;-66
2023/03/11 01:19:53;;;;;;;0.00;0.00;;;2.40;99.90;;;;;;5066173;28;20178;-66
2023/03/11 01:22:19;;;;;;;0.00;0.00;;;2.40;99.90;;;;;;5062301;28;20193;-66
2023/03/11 01:24:44;;;;;;;0.00;0.00;;;2.30;99.90;;;;;;5058074;28;20254;-66
2023/03/11 01:27:10;;;;;;;0.00;0.00;;;2.30;99.90;;;;;;5067183;28;20177;-66
2023/03/11 01:29:35;;;;;;;0.00;0.00;;;2.20;99.90;;;;;;5058820;28;20190;-66
2023/03/11 01:32:01;;;;;;;0.00;0.00;;;2.10;99.90;;;;;;5064501;28;20177;-66
2023/03/11 01:34:26;;;;;;;0.00;0.00;;;2.10;99.90;;;;;;5054866;28;20186;-66
2023/03/11 01:36:52;;;;;;;0.00;0.00;;;2.00;99.90;;;;;;5059268;28;20265;-66
2023/03/11 01:39:17;;;;;;;0.00;0.00;;;1.90;99.90;;;;;;5061923;28;20185;-66
2023/03/11 01:41:43;;;;;;;0.00;0.00;;;1.90;99.90;;;;;;5068439;28;20222;-66
2023/03/11 01:44:11;;;;;;;0.00;0.00;;;1.80;99.90;;;;;;5066865;28;20265;-66
2023/03/11 01:47:01;;;;;;;0.00;0.00;;;1.80;99.90;;;;;;5070589;28;20192;-66
2023/03/11 01:49:27;;;;;;;0.00;0.00;;;1.80;99.90;;;;;;5036358;28;20287;-66
2023/03/11 01:52:02;;;;;;;0.00;0.00;;;1.70;99.90;;;;;;5069134;28;20196;-66
2023/03/11 01:54:32;;;;;;;0.00;0.00;;;1.70;99.90;;;;;;5053747;28;20344;-66
2023/03/11 01:57:00;;;;;;;0.00;0.00;;;1.60;99.90;;;;;;5053419;28;20223;-66
2023/03/11 01:59:30;;;;;;;0.00;0.00;;;1.60;99.90;;;;;;5061138;28;20185;-67
2023/03/11 02:02:15;;;;;;;0.00;0.00;;;1.60;99.90;;;;;;5063340;28;20173;-67
2023/03/11 02:04:41;;;;;;;0.00;0.00;;;1.50;99.90;;;;;;5053621;28;20180;-66
2023/03/11 02:07:09;;;;;;;0.00;0.00;;;1.50;99.90;;;;;;5051761;28;20177;-67
2023/03/11 02:09:35;;;;;;;0.00;0.00;;;1.50;99.90;;;;;;5066065;28;20647;-66
2023/03/11 02:12:02;;;;;;;0.00;0.00;;;1.50;99.90;;;;;;5067606;28;20219;-66
2023/03/11 02:14:28;;;;;;;0.00;0.00;;;1.50;99.90;;;;;;5060758;28;20196;-66
2023/03/11 02:16:55;;;;;;;0.00;0.00;;;1.50;99.90;;;;;;5057924;28;20248;-66
2023/03/11 02:19:55;;;;;;;0.00;0.00;;;1.40;99.90;;;;;;5054429;28;20177;-66
2023/03/11 02:22:20;;;;;;;0.00;0.00;;;1.40;99.90;;;;;;5046714;28;20205;-66
2023/03/11 02:25:03;;;;;;;0.00;0.00;;;1.40;99.90;;;;;;5067945;28;20483;-65
2023/03/11 02:27:31;;;;;;;0.00;0.00;;;1.40;99.90;;;;;;5057945;28;20177;-66
2023/03/11 02:29:59;;;;;;;0.10;0.10;;;1.40;99.90;;;;;;5052293;28;20216;-66
2023/03/11 02:32:25;;;;;;;0.00;0.00;;;1.40;99.90;;;;;;5063961;28;20185;-66
2023/03/11 02:34:51;;;;;;;0.00;0.00;;;1.40;99.90;;;;;;5067813;28;20268;-66
2023/03/11 02:37:17;;;;;;;0.00;0.00;;;1.40;99.90;;;;;;5051713;28;20181;-66
2023/03/11 02:39:45;;;;;;;0.00;0.00;;;1.40;99.90;;;;;;5054337;28;20173;-66
2023/03/11 02:42:27;;;;;;;0.00;0.00;;;1.30;99.90;;;;;;5053399;28;20193;-66
2023/03/11 02:45:06;;;;;;;0.00;0.00;;;1.30;99.90;;;;;;5052111;28;20250;-66
2023/03/11 02:47:34;;;;;;;0.00;0.00;;;1.30;99.90;;;;;;5060929;28;20191;-66
2023/03/11 02:50:00;;;;;;;0.00;0.00;;;1.20;99.90;;;;;;5055932;28;20185;-67
2023/03/11 02:52:28;;;;;;;0.00;0.00;;;1.20;99.90;;;;;;5066654;28;20541;-66
2023/03/11 02:54:53;;;;;;;0.00;0.00;;;1.20;99.90;;;;;;5062132;28;20217;-66
2023/03/11 02:57:19;;;;;;;0.00;0.00;;;1.20;99.90;;;;;;5059823;28;20314;-66
2023/03/11 02:59:44;;;;;;;0.00;0.00;;;1.20;99.90;;;;;;5065285;28;20330;-66
2023/03/11 03:02:10;;;;;;;0.00;0.00;;;1.20;99.90;;;;;;5056983;28;20278;-66
2023/03/11 03:04:35;;;;;;;0.00;0.00;;;1.20;99.90;;;;;;5054091;28;20188;-66
2023/03/11 03:07:01;;;;;;;0.00;0.00;;;1.10;99.90;;;;;;5063007;28;20200;-66
2023/03/11 03:09:26;;;;;;;0.00;0.00;;;1.10;99.90;;;;;;5052988;28;20189;-65
2023/03/11 03:11:52;;;;;;;0.00;0.00;;;1.10;99.90;;;;;;5062799;28;20199;-65
2023/03/11 03:14:18;;;;;;;0.00;0.00;;;1.10;99.90;;;;;;5058953;28;20180;-65
2023/03/11 03:16:44;;;;;;;0.00;0.00;;;1.00;99.90;;;;;;5054557;28;20229;-65
2023/03/11 03:19:09;;;;;;;0.00;0.00;;;1.00;99.90;;;;;;5065292;28;20243;-65
2023/03/11 03:21:35;;;;;;;0.00;0.00;;;1.00;99.90;;;;;;5053362;28;20595;-65
2023/03/11 03:24:01;;;;;;;0.00;0.00;;;1.00;99.90;;;;;;5062547;28;20185;-65
2023/03/11 03:26:26;;;;;;;0.00;0.00;;;1.00;99.90;;;;;;5067233;28;20216;-65
2023/03/11 03:28:52;;;;;;;0.00;0.00;;;0.90;99.90;;;;;;5051906;28;20640;-65
2023/03/11 03:31:17;;;;;;;0.00;0.00;;;0.90;99.90;;;;;;5061017;28;20182;-65
2023/03/11 03:33:43;;;;;;;0.00;0.00;;;0.90;99.90;;;;;;5060420;28;20193;-65
2023/03/11 03:36:13;;;;;;;0.00;0.00;;;0.80;99.90;;;;;;5055979;28;20632;-65
2023/03/11 03:38:38;;;;;;;0.00;0.00;;;0.80;99.90;;;;;;5067462;28;20283;-65
2023/03/11 03:41:04;;;;;;;0.00;0.00;;;0.80;99.90;;;;;;5053660;28;20692;-65
2023/03/11 03:43:30;;;;;;;0.00;0.00;;;0.70;99.90;;;;;;5059877;28;20181;-65
2023/03/11 03:46:01;;;;;;;0.00;0.00;;;0.70;99.90;;;;;;5065415;28;20223;-65
2023/03/11 03:48:27;;;;;;;0.00;0.00;;;0.70;99.90;;;;;;5054255;28;20212;-65
2023/03/11 03:50:53;;;;;;;0.00;0.00;;;0.60;99.90;;;;;;5042331;28;20199;-65
2023/03/11 03:53:19;;;;;;;0.00;0.00;;;0.60;99.90;;;;;;5062863;28;20541;-65
2023/03/11 03:55:45;;;;;;;0.00;0.00;;;0.60;99.90;;;;;;5055936;28;20290;-64
2023/03/11 03:58:10;;;;;;;0.00;0.00;;;0.50;99.90;;;;;;5050126;28;20190;-65
2023/03/11 04:00:36;;;;;;;0.00;0.00;;;0.60;99.90;;;;;;5051362;28;20190;-66
2023/03/11 04:03:02;;;;;;;0.00;0.00;;;0.60;99.90;;;;;;5066233;28;20182;-65
2023/03/11 04:05:28;;;;;;;0.00;0.00;;;0.60;99.90;;;;;;5055958;28;20192;-65
2023/03/11 04:07:53;;;;;;;0.00;0.00;;;0.50;99.90;;;;;;5062940;28;20181;-65
2023/03/11 04:10:19;;;;;;;0.00;0.00;;;0.60;99.90;;;;;;5069397;28;20184;-65
2023/03/11 04:12:45;;;;;;;0.00;0.00;;;0.50;99.90;;;;;;5049969;28;20182;-65
2023/03/11 04:15:11;;;;;;;0.00;0.00;;;0.50;99.90;;;;;;5060271;28;20223;-65
2023/03/11 04:17:37;;;;;;;0.00;0.00;;;0.50;99.90;;;;;;5061282;28;20217;-65
2023/03/11 04:20:06;;;;;;;0.00;0.00;;;0.50;99.90;;;;;;5050788;28;20545;-65
2023/03/11 04:22:32;;;;;;;0.00;0.00;;;0.50;99.90;;;;;;5063589;28;20182;-66
2023/03/11 04:24:57;;;;;;;0.00;0.00;;;0.50;99.90;;;;;;5059615;28;20260;-65
2023/03/11 04:27:23;;;;;;;0.00;0.00;;;0.50;99.90;;;;;;5063476;28;20196;-65
2023/03/11 04:29:49;;;;;;;0.00;0.00;;;0.60;99.90;;;;;;5056390;28;20177;-65
2023/03/11 04:32:14;;;;;;;0.00;0.00;;;0.60;99.90;;;;;;5067022;28;20219;-65
2023/03/11 04:34:40;;;;;;;0.00;0.00;;;0.60;99.90;;;;;;5062147;28;20300;-65
2023/03/11 04:37:06;;;;;;;0.00;0.00;;;0.60;99.90;;;;;;5058011;28;20191;-65
2023/03/11 04:39:32;;;;;;;0.00;0.00;;;0.60;99.90;;;;;;5074061;28;20521;-65
2023/03/11 04:41:57;;;;;;;0.00;0.00;;;0.60;99.90;;;;;;5059742;28;20189;-65
2023/03/11 04:44:23;;;;;;;0.00;0.00;;;0.50;99.90;;;;;;5058173;28;20226;-65
2023/03/11 04:46:48;;;;;;;0.00;0.00;;;0.50;99.90;;;;;;5071444;28;20185;-65
2023/03/11 04:49:14;;;;;;;0.00;0.00;;;0.50;99.90;;;;;;5053135;28;20231;-65
2023/03/11 04:51:40;;;;;;;0.00;0.00;;;0.50;99.90;;;;;;5065752;28;20196;-65
2023/03/11 04:54:05;;;;;;;0.00;0.00;;;0.50;99.90;;;;;;5071891;28;20173;-66
2023/03/11 04:56:31;;;;;;;0.00;0.00;;;0.40;99.90;;;;;;5054257;28;20562;-65
2023/03/11 04:58:57;;;;;;;0.00;0.00;;;0.40;99.90;;;;;;5073702;28;20166;-65
2023/03/11 05:01:22;;;;;;;0.00;0.00;;;0.40;99.90;;;;;;5065577;28;20262;-65
2023/03/11 05:03:47;;;;;;;0.00;0.00;;;0.40;99.90;;;;;;5054302;28;20766;-65
2023/03/11 05:06:13;;;;;;;0.00;0.00;;;0.30;99.90;;;;;;5067318;28;20696;-65
2023/03/11 05:08:39;;;;;;;0.00;0.00;;;0.30;99.90;;;;;;5061043;28;20183;-65
2023/03/11 05:11:05;;;;;;;0.00;0.00;;;0.30;99.90;;;;;;5066883;28;20177;-65
2023/03/11 05:13:31;;;;;;;0.00;0.00;;;0.20;99.90;;;;;;5068748;28;20192;-66
2023/03/11 05:15:56;;;;;;;0.00;0.00;;;0.20;99.90;;;;;;5056821;28;20213;-66
2023/03/11 05:18:22;;;;;;;0.00;0.00;;;0.20;99.90;;;;;;5068547;28;20230;-65
2023/03/11 05:20:49;;;;;;;0.00;0.00;;;0.20;99.90;;;;;;5068737;28;20203;-65
2023/03/11 05:23:14;;;;;;;0.00;0.00;;;0.20;99.90;;;;;;5053806;28;20181;-65
2023/03/11 05:25:40;;;;;;;0.00;0.00;;;0.20;99.90;;;;;;5067507;28;20231;-65
2023/03/11 05:28:05;;;;;;;0.00;0.00;;;0.20;99.90;;;;;;5061046;28;20182;-65
2023/03/11 05:30:31;;;;;;;0.00;0.00;;;0.20;99.90;;;;;;5067731;28;20191;-65
2023/03/11 05:32:56;;;;;;;0.00;0.00;;;0.20;99.90;;;;;;5053648;28;20511;-65
2023/03/11 05:35:22;;;;;;;0.00;0.00;;;0.30;99.90;;;;;;5064654;28;20207;-65
2023/03/11 05:37:48;;;;;;;0.00;0.00;;;0.30;99.90;;;;;;5063545;28;20690;-66
2023/03/11 05:40:15;;;;;;;0.00;0.00;;;0.30;99.90;;;;;;5053684;28;20189;-65
2023/03/11 05:42:40;;;;;;;0.00;0.00;;;0.30;99.90;;;;;;5072397;28;20237;-65
2023/03/11 05:45:07;;;;;;;0.00;0.00;;;0.40;99.90;;;;;;5063998;28;20181;-65
2023/03/11 05:47:33;;;;;;;0.00;0.00;;;0.40;99.90;;;;;;5060351;28;20705;-65
2023/03/11 05:49:58;;;;;;;0.00;0.00;;;0.40;99.90;;;;;;5053580;28;20312;-65
2023/03/11 05:52:24;;;;;;;0.00;0.00;;;0.40;99.90;;;;;;5070317;28;20189;-65
2023/03/11 05:54:50;;;;;;;0.00;0.00;;;0.50;99.90;;;;;;5065858;28;20212;-65
2023/03/11 05:57:17;;;;;;;0.00;0.00;;;0.50;99.90;;;;;;5058543;28;20576;-66
2023/03/11 05:59:43;;;;;;;0.00;0.00;;;0.50;99.90;;;;;;5072427;28;20177;-65
2023/03/11 06:02:08;;;;;;;0.20;0.20;;;0.40;99.90;;;;;;5057983;28;20199;-66
2023/03/11 06:04:34;;;;;;;0.00;0.00;;;0.40;99.90;;;;;;5057667;28;20181;-65
2023/03/11 06:07:00;;;;;;;0.00;0.00;;;0.40;99.90;;;;;;5069925;28;20185;-65
2023/03/11 06:09:25;;;;;;;0.00;0.00;;;0.40;99.90;;;;;;5052848;28;20537;-65
2023/03/11 06:11:51;;;;;;;0.00;0.00;;;0.30;99.90;;;;;;5064780;28;20188;-65
2023/03/11 06:14:16;;;;;;;0.00;0.00;;;0.30;99.90;;;;;;5064670;28;20245;-65
2023/03/11 06:16:42;;;;;;;0.00;0.00;;;0.40;99.90;;;;;;5052280;28;20255;-66
2023/03/11 06:19:08;;;;;;;0.00;0.00;;;0.40;99.90;;;;;;5056207;28;20172;-65
2023/03/11 06:21:33;;;;;;;0.00;0.00;;;0.40;99.90;;;;;;5062136;28;20177;-65
2023/03/11 06:23:59;;;;;;;0.00;0.00;;;0.40;99.90;;;;;;5052444;28;20216;-65
2023/03/11 06:26:24;;;;;;;0.00;0.00;;;0.40;99.90;;;;;;5071709;28;20237;-65
2023/03/11 06:28:51;;;;;;;0.00;0.00;;;0.50;99.90;;;;;;5057073;28;20185;-65
2023/03/11 06:31:24;;;;;;;0.00;0.00;;;0.50;99.90;;;;;;5067192;28;20177;-65
2023/03/11 06:33:50;;;;;;;0.00;0.00;;;0.50;99.90;;;;;;5051126;28;20229;-65
2023/03/11 06:36:18;;;;;;;0.00;0.00;;;0.50;99.90;;;;;;5065114;28;20618;-65
2023/03/11 06:38:45;;;;;;;0.00;0.00;;;0.50;99.90;;;;;;5071421;28;20181;-65
2023/03/11 06:41:11;;;;;;;0.00;0.00;;;0.60;99.90;;;;;;5052079;28;20178;-65
2023/03/11 06:43:37;;;;;;;0.00;0.00;;;0.70;99.90;;;;;;5059202;28;20185;-65
2023/03/11 06:46:11;;;;;;;0.00;0.00;;;0.70;99.90;;;;;;5062789;28;20738;-65
2023/03/11 06:48:37;;;;;;;0.00;0.00;;;0.90;99.90;;;;;;5067527;28;20176;-65
2023/03/11 06:51:02;;;;;;;0.00;0.00;;;1.00;99.90;;;;;;5061962;28;20564;-65
2023/03/11 06:53:28;;;;;;;0.00;0.00;;;1.10;99.90;;;;;;5051272;28;20188;-65
2023/03/11 06:56:12;;;;;;;0.00;0.00;;;1.30;99.90;;;;;;5051916;28;20334;-66
2023/03/11 06:58:39;;;;;;;0.00;0.00;;;1.50;99.90;;;;;;5051646;28;20184;-67
2023/03/11 07:01:09;;;;;;;0.00;0.00;;;1.80;99.90;;;;;;5050777;28;20192;-66
2023/03/11 07:03:34;;;;;;;0.00;0.00;;;2.10;99.90;;;;;;5051882;28;20180;-66
2023/03/11 07:06:00;;;;;;;0.00;0.00;;;2.50;99.90;;;;;;5062057;28;20267;-65
2023/03/11 07:08:25;;;;;;;0.00;0.00;;;3.00;99.90;;;;;;5057327;28;20641;-64
2023/03/11 07:11:07;;;;;;;0.00;0.00;;;3.50;99.90;;;;;;5068365;28;20181;-65
2023/03/11 07:13:32;;;;;;;0.00;0.00;;;3.80;99.90;;;;;;5056789;28;20187;-64
2023/03/11 07:16:03;;;;;;;0.00;0.00;;;3.90;99.90;;;;;;5051087;28;20221;-62
2023/03/11 07:18:28;;;;;;;0.00;0.00;;;4.10;99.90;;;;;;5051755;28;20549;-62
2023/03/11 07:20:54;;;;;;;0.00;0.00;;;4.30;99.90;;;;;;5052502;28;20181;-65
2023/03/11 07:23:19;;;;;;;0.00;0.00;;;4.60;99.90;;;;;;5063138;28;20176;-65
2023/03/11 07:25:46;;;;;;;0.00;0.00;;;4.80;99.90;;;;;;5063042;28;20222;-66
2023/03/11 07:28:12;;;;;;;0.00;0.00;;;5.20;99.90;;;;;;5061858;28;20200;-65
2023/03/11 07:30:38;;;;;;;0.00;0.00;;;5.50;99.10;;;;;;5054075;28;20194;-64
2023/03/11 07:33:03;;;;;;;0.00;0.00;;;5.60;98.40;;;;;;5051352;28;20198;-69
2023/03/11 07:35:29;;;;;;;0.00;0.00;;;5.70;97.50;;;;;;5051219;28;20210;-67
2023/03/11 07:37:55;;;;;;;0.00;0.00;;;5.80;97.60;;;;;;5051282;28;20181;-67
2023/03/11 07:40:20;;;;;;;0.00;0.00;;;6.10;97.20;;;;;;5060459;28;20192;-61
2023/03/11 07:42:46;;;;;;;0.00;0.00;;;6.30;96.00;;;;;;5067174;28;20181;-63
2023/03/11 07:45:11;;;;;;;0.00;0.00;;;6.60;95.40;;;;;;5051968;28;20184;-64
2023/03/11 07:47:37;;;;;;;0.00;0.00;;;7.10;95.10;;;;;;5050661;28;20667;-64
2023/03/11 07:50:02;;;;;;;0.00;0.00;;;7.40;93.20;;;;;;5051307;28;20664;-64
2023/03/11 07:52:31;;;;;;;0.00;0.00;;;7.70;92.00;;;;;;5049500;28;20193;-66
2023/03/11 07:54:57;;;;;;;0.00;0.00;;;8.00;91.30;;;;;;5051024;28;20201;-67
2023/03/11 07:57:23;;;;;;;0.00;0.00;;;8.00;90.00;;;;;;5050705;28;20189;-68
2023/03/11 07:59:49;;;;;;;0.00;0.00;;;8.40;89.50;;;;;;5050498;28;20180;-68
2023/03/11 08:02:14;;;;;;;0.00;0.00;;;8.20;87.80;;;;;;5050435;28;20192;-67
2023/03/11 08:04:40;;;;;;;0.00;0.00;;;7.90;87.80;;;;;;5050925;28;20172;-67
2023/03/11 08:07:05;;;;;;;0.00;0.00;;;7.80;87.40;;;;;;5050802;28;20191;-69
2023/03/11 08:09:32;;;;;;;0.00;0.00;;;8.00;88.70;;;;;;5051085;28;20185;-68
2023/03/11 08:11:58;;;;;;;0.00;0.00;;;8.30;86.30;;;;;;5050860;28;20255;-68
2023/03/11 08:14:23;;;;;;;0.00;0.00;;;8.70;84.30;;;;;;5051168;28;20712;-68
2023/03/11 08:16:49;;;;;;;0.00;0.00;;;9.10;83.70;;;;;;5051131;28;20239;-68
2023/03/11 08:19:15;;;;;;;0.00;0.00;;;9.20;81.50;;;;;;5051425;28;20181;-68
2023/03/11 08:21:40;;;;;;;0.00;0.00;;;9.50;82.10;;;;;;5051330;28;20174;-68
2023/03/11 08:24:06;;;;;;;0.00;0.00;;;10.00;80.50;;;;;;5051066;28;20181;-68
2023/03/11 08:26:31;;;;;;;0.00;0.00;;;10.10;72.70;;;;;;5051048;28;20181;-69
2023/03/11 08:28:58;;;;;;;0.00;0.00;;;9.60;74.70;;;;;;5050954;28;20186;-68
2023/03/11 08:31:26;;;;;;;0.00;0.00;;;9.20;75.30;;;;;;5052290;28;20189;-69
2023/03/11 08:33:57;;;;;;;0.00;0.00;;;8.60;75.70;;;;;;5062067;28;20205;-68
2023/03/11 08:36:23;;;;;;;0.00;0.00;;;8.00;76.60;;;;;;5051030;28;20220;-67
2023/03/11 08:38:49;;;;;;;0.00;0.00;;;7.30;78.30;;;;;;5050995;28;20184;-68
2023/03/11 08:41:15;;;;;;;0.00;0.00;;;6.40;80.40;;;;;;5051097;28;20185;-68
2023/03/11 08:43:41;;;;;;;0.00;0.00;;;6.30;84.00;;;;;;5051073;28;20173;-69
2023/03/11 08:46:06;;;;;;;0.00;0.00;;;6.60;85.00;;;;;;5050890;28;20169;-69
2023/03/11 08:48:33;;;;;;;0.00;0.00;;;6.70;83.40;;;;;;5050975;28;20180;-68
2023/03/11 08:50:59;;;;;;;0.00;0.00;;;6.80;83.40;;;;;;5050933;28;20569;-69
2023/03/11 08:53:25;;;;;;;0.00;0.00;;;6.80;84.20;;;;;;5050833;28;20178;-70
2023/03/11 08:55:51;;;;;;;0.00;0.00;;;6.90;84.40;;;;;;5050997;28;20219;-70
2023/03/11 08:58:17;;;;;;;0.00;0.00;;;7.00;83.30;;;;;;5049678;28;20212;-70
2023/03/11 09:00:43;;;;;;;0.00;0.00;;;6.80;83.10;;;;;;5049680;28;20888;-69
2023/03/11 09:03:08;;;;;;;0.00;0.00;;;6.80;82.50;;;;;;5050796;28;20185;-69
2023/03/11 09:05:34;;;;;;;0.00;0.00;;;6.50;82.60;;;;;;5050763;28;20169;-68
2023/03/11 09:08:01;;;;;;;0.00;0.00;;;6.50;83.00;;;;;;5050817;28;20644;-69
2023/03/11 09:10:27;;;;;;;0.00;0.00;;;6.70;85.80;;;;;;5050572;28;20185;-69
2023/03/11 09:12:52;;;;;;;0.00;0.00;;;7.30;87.40;;;;;;5050685;28;20170;-69
2023/03/11 09:15:18;;;;;;;0.00;0.00;;;8.00;86.50;;;;;;5050501;28;20209;-68
2023/03/11 09:17:43;;;;;;;0.00;0.00;;;8.50;83.60;;;;;;5050403;28;20606;-69
2023/03/11 09:20:12;;;;;;;0.00;0.00;;;9.00;81.70;;;;;;5050507;28;20182;-69
2023/03/11 09:22:37;;;;;;;0.00;0.00;;;9.40;81.40;;;;;;5045954;28;20277;-69
2023/03/11 09:25:03;;;;;;;0.00;0.00;;;9.50;78.50;;;;;;5034325;28;20296;-70
2023/03/11 09:27:28;;;;;;;0.00;0.00;;;9.60;78.10;;;;;;5049596;28;20193;-69
2023/03/11 09:29:54;;;;;;;0.00;0.00;;;9.60;79.10;;;;;;5054137;28;20180;-71
2023/03/11 09:32:19;;;;;;;0.00;0.00;;;9.10;74.30;;;;;;5053954;28;20185;-69
2023/03/11 09:34:45;;;;;;;0.00;0.00;;;8.80;75.80;;;;;;5055359;28;20182;-69
2023/03/11 09:37:10;;;;;;;0.00;0.00;;;8.60;77.00;;;;;;5053562;28;20227;-69
2023/03/11 09:39:36;;;;;;;0.00;0.00;;;8.40;77.30;;;;;;5053606;28;20184;-69
2023/03/11 09:42:04;;;;;;;0.00;0.00;;;8.30;78.90;;;;;;5053440;28;20188;-69
2023/03/11 09:44:44;;;;;;;0.00;0.00;;;8.60;81.00;;;;;;5053212;28;20585;-71
2023/03/11 09:47:35;;;;;;;0.00;0.00;;;8.80;78.60;;;;;;5068610;28;20197;-71
2023/03/11 09:50:25;;;;;;;0.00;0.00;;;8.70;77.20;;;;;;5053615;28;20178;-71
2023/03/11 09:53:16;;;;;;;0.00;0.00;;;8.50;77.00;;;;;;5045205;28;20185;-69
2023/03/11 09:55:52;;;;;;;0.00;0.00;;;8.30;76.80;;;;;;5052539;28;20244;-70
2023/03/11 09:58:23;;;;;;;0.00;0.00;;;8.50;79.90;;;;;;5053101;28;20192;-68
2023/03/11 10:00:51;;;;;;;0.00;0.00;;;8.90;79.60;;;;;;5053599;28;20315;-62
2023/03/11 10:03:37;;;;;;;0.00;0.00;;;9.10;79.90;;;;;;5058655;28;20817;-67
2023/03/11 10:06:18;;;;;;;0.00;0.00;;;9.30;78.10;;;;;;5053982;28;20546;-67
2023/03/11 10:09:05;;;;;;;0.00;0.00;;;9.50;78.00;;;;;;5053300;28;20186;-67
2023/03/11 10:11:58;;;;;;;0.00;0.00;;;9.80;79.20;;;;;;5053336;28;20582;-67
2023/03/11 10:14:43;;;;;;;0.00;0.00;;;10.20;73.70;;;;;;5053295;28;20180;-67
2023/03/11 10:17:33;;;;;;;0.00;0.00;;;10.20;72.80;;;;;;5053198;28;20964;-67
2023/03/11 10:20:18;;;;;;;0.00;0.00;;;9.80;69.30;;;;;;5053117;28;20260;-67
2023/03/11 10:22:46;;;;;;;0.00;0.00;;;9.50;72.00;;;;;;5048529;28;20240;-67
2023/03/11 10:25:30;;;;;;;0.00;0.00;;;9.00;68.90;;;;;;5033264;28;20176;-67
2023/03/11 10:28:07;;;;;;;0.00;0.00;;;8.40;69.60;;;;;;5048555;28;20251;-67
2023/03/11 10:30:43;;;;;;;0.00;0.00;;;8.10;73.50;;;;;;5067173;28;20623;-67
2023/03/11 10:33:34;;;;;;;0.00;0.00;;;8.40;75.70;;;;;;5073098;28;20187;-67
2023/03/11 10:36:05;;;;;;;0.00;0.00;;;9.10;73.30;;;;;;5072720;28;20291;-67
2023/03/11 10:38:34;;;;;;;0.00;0.00;;;9.50;71.50;;;;;;5072915;28;20176;-67
2023/03/11 10:41:11;;;;;;;0.00;0.00;;;9.50;66.90;;;;;;5072684;28;20184;-67
2023/03/11 10:43:49;;;;;;;0.00;0.00;;;9.30;65.80;;;;;;5072889;28;20183;-67
2023/03/11 10:46:22;;;;;;;0.00;0.00;;;8.80;65.00;;;;;;5071570;28;20700;-67
2023/03/11 10:48:47;;;;;;;0.00;0.00;;;8.60;66.20;;;;;;5072705;28;20593;-67
2023/03/11 10:51:22;;;;;;;0.00;0.00;;;8.60;66.90;;;;;;5072701;28;20191;-67
2023/03/11 10:53:57;;;;;;;0.10;0.10;;;8.80;67.70;;;;;;5072765;28;20233;-67
2023/03/11 10:56:38;;;;;;;0.00;0.00;;;9.40;66.40;;;;;;5072529;28;20215;-67
2023/03/11 10:59:21;;;;;;;0.00;0.00;;;10.00;64.40;;;;;;5072434;28;20268;-67
2023/03/11 11:02:18;;;;;;;0.00;0.00;;;10.30;60.60;;;;;;5072511;28;20508;-67
2023/03/11 11:04:44;;;;;;;0.00;0.00;;;10.30;61.60;;;;;;5072371;28;20176;-66
2023/03/11 11:07:20;;;;;;;0.00;0.00;;;10.00;62.90;;;;;;5072245;28;20231;-67
2023/03/11 11:09:45;;;;;;;0.57;0.52;;;9.90;63.40;;;;;;5072258;28;20534;-67
2023/03/11 11:12:14;;;;;;;0.00;0.00;;;9.80;65.50;;;;;;5072326;28;20182;-67
2023/03/11 11:14:46;;;;;;;0.00;0.00;;;9.60;65.10;;;;;;5071887;28;20181;-67
2023/03/11 11:17:25;;;;;;;0.10;0.10;;;9.30;66.70;;;;;;5071984;28;20232;-67
2023/03/11 11:19:52;;;;;;;0.05;0.05;;;9.00;66.50;;;;;;5070764;28;20164;-67
2023/03/11 11:22:20;;;;;;;0.10;0.10;;;8.80;68.50;;;;;;5067593;28;20640;-67
2023/03/11 11:24:47;;;;;;;0.08;0.08;;;8.80;67.90;;;;;;5050731;28;20200;-67
2023/03/11 11:27:18;;;;;;;0.00;0.00;;;8.70;67.20;;;;;;5052085;28;20170;-67
2023/03/11 11:29:44;;;;;;;0.03;0.03;;;8.60;67.50;;;;;;5060866;28;20173;-67
2023/03/11 11:32:39;;;;;;;0.00;0.00;;;8.50;68.10;;;;;;5071928;28;20173;-67
2023/03/11 11:35:07;;;;;;;0.00;0.00;;;8.10;68.80;;;;;;5069498;28;20588;-67
2023/03/11 11:37:38;;;;;;;0.55;0.35;;;8.00;68.60;;;;;;5070316;28;20177;-67
2023/03/11 11:40:13;;;;;;;0.00;0.00;;;7.90;69.10;;;;;;5071723;28;20256;-67
2023/03/11 11:42:49;;;;;;;0.05;0.05;;;8.00;70.10;;;;;;5071629;28;20706;-67
2023/03/11 11:45:24;;;;;;;0.00;0.00;;;8.10;70.70;;;;;;5070022;28;20184;-67
2023/03/11 11:47:54;;;;;;;0.00;0.00;;;8.40;67.90;;;;;;5071675;28;20335;-67
2023/03/11 11:50:30;;;;;;;0.10;0.10;;;8.90;67.20;;;;;;5071591;28;20173;-67
2023/03/11 11:53:12;;;;;;;0.00;0.00;;;9.10;62.90;;;;;;5071586;28;20200;-67
2023/03/11 11:55:45;;;;;;;0.00;0.00;;;8.90;64.60;;;;;;5071345;28;20216;-67
2023/03/11 11:58:11;;;;;;;0.00;0.00;;;8.90;64.00;;;;;;5071487;28;20180;-68
2023/03/11 12:00:55;;;;;;;0.00;0.00;;;8.70;65.00;;;;;;5071384;28;20197;-68
2023/03/11 12:03:20;;;;;;;0.00;0.00;;;8.40;63.40;;;;;;5059155;28;20811;-69
2023/03/11 12:05:57;;;;;;;0.10;0.10;;;7.90;62.80;;;;;;5055107;28;20268;-67
2023/03/11 12:08:46;;;;;;;0.00;0.00;;;7.60;64.10;;;;;;5061670;28;20268;-67
2023/03/11 12:11:21;;;;;;;0.00;0.00;;;7.60;65.10;;;;;;5056244;28;20192;-69
2023/03/11 12:14:14;;;;;;;0.00;0.00;;;7.50;66.00;;;;;;5039293;28;20176;-68
2023/03/11 12:16:54;;;;;;;0.00;0.00;;;7.40;67.90;;;;;;5059569;28;20291;-68
2023/03/11 12:19:50;;;;;;;0.00;0.00;;;7.30;68.00;;;;;;5067193;28;20173;-68
2023/03/11 12:22:40;;;;;;;0.00;0.00;;;7.20;68.70;;;;;;5056117;28;20209;-70
2023/03/11 12:25:44;;;;;;;0.00;0.00;;;7.20;68.60;;;;;;5063174;28;20192;-69
2023/03/11 12:28:17;;;;;;;0.10;0.10;;;7.10;65.90;;;;;;5038937;28;20621;-68
2023/03/11 12:31:05;;;;;;;0.00;0.00;;;7.00;65.40;;;;;;5065255;28;20180;-68
2023/03/11 12:33:38;;;;;;;0.00;0.00;;;7.00;66.10;;;;;;5057019;28;20683;-67
2023/03/11 12:36:05;;;;;;;0.00;0.00;;;7.30;69.30;;;;;;5063946;28;20216;-67
2023/03/11 12:38:45;;;;;;;0.05;0.05;;;7.60;65.50;;;;;;5063829;28;20173;-67
2023/03/11 12:41:14;;;;;;;0.00;0.00;;;7.90;64.00;;;;;;5063316;28;20185;-67
2023/03/11 12:43:39;;;;;;;0.00;0.00;;;8.10;64.50;;;;;;5053026;28;20650;-67
2023/03/11 12:46:10;;;;;;;0.00;0.00;;;8.50;63.50;;;;;;5067165;28;20225;-67
2023/03/11 12:49:05;;;;;;;0.00;0.00;;;8.80;64.30;;;;;;5058294;28;20195;-67
2023/03/11 12:51:36;;;;;;;0.00;0.00;;;9.20;63.00;;;;;;5054036;28;20177;-64
2023/03/11 12:54:30;;;;;;;0.00;0.00;;;9.40;60.80;;;;;;5066771;28;20177;-65
2023/03/11 12:57:15;;;;;;;0.13;0.13;;;9.20;59.40;;;;;;5050911;28;21022;-65
2023/03/11 12:59:56;;;;;;;0.00;0.00;;;8.80;58.00;;;;;;5056687;28;20177;-67
2023/03/11 13:02:47;;;;;;;0.00;0.00;;;8.70;60.60;;;;;;5055099;28;20187;-66
2023/03/11 13:05:46;;;;;;;0.00;0.00;;;8.40;61.60;;;;;;5049791;28;20192;-68
2023/03/11 13:08:20;;;;;;;0.00;0.00;;;8.10;59.20;;;;;;5052873;28;20518;-66
2023/03/11 13:10:47;;;;;;;0.00;0.00;;;7.80;60.00;;;;;;5033127;28;20235;-69